createdAt,value
2018-06-12T00:02:01.373Z,10.97
2018-06-12T00:04:28.977Z,11.00
2018-06-12T00:06:56.591Z,12.23
2018-06-12T00:09:24.196Z,12.03
2018-06-12T00:11:51.768Z,14.80
2018-06-12T00:14:19.358Z,14.00
2018-06-12T00:16:46.954Z,13.20
2018-06-12T00:19:14.537Z,13.63
2018-06-12T00:21:42.148Z,17.33
2018-06-12T00:24:09.761Z,15.77
2018-06-12T00:26:37.442Z,17.30
2018-06-12T00:29:05.148Z,16.67
2018-06-12T00:31:32.748Z,17.03
2018-06-12T00:34:00.319Z,14.90
2018-06-12T00:36:27.975Z,14.83
2018-06-12T00:38:55.586Z,14.00
2018-06-12T00:41:23.182Z,14.90
2018-06-12T00:43:50.756Z,12.80
2018-06-12T00:46:18.345Z,13.40
2018-06-12T00:48:45.959Z,13.33
2018-06-12T00:51:13.594Z,13.30
2018-06-12T00:53:41.205Z,13.73
2018-06-12T00:56:08.837Z,12.73
2018-06-12T00:58:36.424Z,14.83
2018-06-12T01:01:04.028Z,14.93
2018-06-12T01:03:31.633Z,13.33
2018-06-12T01:05:59.242Z,14.00
2018-06-12T01:08:26.849Z,12.30
2018-06-12T01:10:54.454Z,13.37
2018-06-12T01:13:22.065Z,16.57
2018-06-12T01:15:49.678Z,15.80
2018-06-12T01:18:17.290Z,13.90
2018-06-12T01:20:44.882Z,10.63
2018-06-12T01:23:12.496Z,10.33
2018-06-12T01:25:40.104Z,12.10
2018-06-12T01:28:07.870Z,10.80
2018-06-12T01:30:35.476Z,11.87
2018-06-12T01:33:03.090Z,10.77
2018-06-12T01:35:30.692Z,12.30
2018-06-12T01:37:58.253Z,8.43
2018-06-12T01:40:25.854Z,10.70
2018-06-12T01:42:53.444Z,9.93
2018-06-12T01:45:21.040Z,9.17
2018-06-12T01:47:48.660Z,8.67
2018-06-12T01:50:16.270Z,13.67
2018-06-12T01:52:43.969Z,6.43
2018-06-12T01:55:11.565Z,10.40
2018-06-12T01:57:39.179Z,9.97
2018-06-12T02:00:06.794Z,12.00
2018-06-12T02:02:34.391Z,13.23
2018-06-12T02:05:01.993Z,6.83
2018-06-12T02:07:29.549Z,11.00
2018-06-12T02:09:57.140Z,9.53
2018-06-12T02:12:24.712Z,9.57
2018-06-12T02:14:52.323Z,10.17
2018-06-12T02:17:19.912Z,8.37
2018-06-12T02:19:47.481Z,10.73
2018-06-12T02:22:15.060Z,10.30
2018-06-12T02:24:42.655Z,10.57
2018-06-12T02:27:10.238Z,11.27
2018-06-12T02:29:37.852Z,14.60
2018-06-12T02:32:05.457Z,9.60
2018-06-12T02:34:33.056Z,13.57
2018-06-12T02:37:00.712Z,13.27
2018-06-12T02:39:28.312Z,11.23
2018-06-12T02:41:55.901Z,16.17
2018-06-12T02:44:23.484Z,9.73
2018-06-12T02:46:51.048Z,12.80
2018-06-12T02:49:18.607Z,12.80
2018-06-12T02:51:46.209Z,12.93
2018-06-12T02:54:13.799Z,11.80
2018-06-12T02:56:41.402Z,13.43
2018-06-12T02:59:08.968Z,10.33
2018-06-12T03:01:36.541Z,11.50
2018-06-12T03:04:04.121Z,10.37
2018-06-12T03:06:31.676Z,12.20
2018-06-12T03:08:59.261Z,8.60
2018-06-12T03:11:26.853Z,12.23
2018-06-12T03:13:54.470Z,12.13
2018-06-12T03:16:22.082Z,14.40
2018-06-12T03:18:49.692Z,11.00
2018-06-12T03:21:17.296Z,11.87
2018-06-12T03:23:44.866Z,11.23
2018-06-12T03:26:12.476Z,9.97
2018-06-12T03:28:40.052Z,12.20
2018-06-12T03:31:07.640Z,15.60
2018-06-12T03:33:35.215Z,12.50
2018-06-12T03:36:02.814Z,16.53
2018-06-12T03:38:30.403Z,11.23
2018-06-12T03:40:57.973Z,13.60
2018-06-12T03:43:25.542Z,11.30
2018-06-12T03:45:53.162Z,11.77
2018-06-12T03:48:20.837Z,12.43
2018-06-12T03:50:48.426Z,16.20
2018-06-12T03:53:16.016Z,13.00
2018-06-12T03:55:43.583Z,13.63
2018-06-12T03:58:11.180Z,13.70
2018-06-12T04:00:38.769Z,12.83
2018-06-12T04:03:06.374Z,12.07
2018-06-12T04:05:33.985Z,19.83
2018-06-12T04:08:01.588Z,12.90
2018-06-12T04:10:29.195Z,12.50
2018-06-12T04:12:56.780Z,14.43
2018-06-12T04:15:24.374Z,11.60
2018-06-12T04:17:52.021Z,11.70
2018-06-12T04:20:19.625Z,11.83
2018-06-12T04:22:47.240Z,12.90
2018-06-12T04:25:14.832Z,11.20
2018-06-12T04:27:42.473Z,11.60
2018-06-12T04:30:10.081Z,11.63
2018-06-12T04:32:37.665Z,14.43
2018-06-12T04:35:05.320Z,11.80
2018-06-12T04:37:32.904Z,13.10
2018-06-12T04:40:00.511Z,11.67
2018-06-12T04:42:28.111Z,11.93
2018-06-12T04:44:55.702Z,12.00
2018-06-12T04:47:23.291Z,12.50
2018-06-12T04:49:50.904Z,14.33
2018-06-12T04:52:18.555Z,14.80
2018-06-12T04:54:46.156Z,16.73
2018-06-12T04:57:13.749Z,13.07
2018-06-12T04:59:41.370Z,19.47
2018-06-12T05:02:08.944Z,13.93
2018-06-12T05:04:36.532Z,16.93
2018-06-12T05:07:04.128Z,14.67
2018-06-12T05:09:31.703Z,15.27
2018-06-12T05:11:59.286Z,14.13
2018-06-12T05:14:26.872Z,13.97
2018-06-12T05:16:54.491Z,11.43
2018-06-12T05:19:22.080Z,11.97
2018-06-12T05:21:49.702Z,13.67
2018-06-12T05:24:17.328Z,12.47
2018-06-12T05:26:45.593Z,13.43
2018-06-12T05:29:13.203Z,14.37
2018-06-12T05:31:40.806Z,14.90
2018-06-12T05:34:08.446Z,14.33
2018-06-12T05:36:36.051Z,14.40
2018-06-12T05:39:04.718Z,14.23
2018-06-12T05:41:32.312Z,14.47
2018-06-12T05:43:59.944Z,12.20
2018-06-12T05:46:27.559Z,11.30
2018-06-12T05:48:55.156Z,10.77
2018-06-12T05:51:22.731Z,14.43
2018-06-12T05:53:50.574Z,11.57
2018-06-12T05:56:18.675Z,12.97
2018-06-12T05:58:46.540Z,11.20
2018-06-12T06:01:14.430Z,12.10
2018-06-12T06:03:42.037Z,14.93
2018-06-12T06:06:09.657Z,10.83
2018-06-12T06:08:37.301Z,10.50
2018-06-12T06:11:04.883Z,16.17
2018-06-12T06:13:32.434Z,11.50
2018-06-12T06:16:00.035Z,8.97
2018-06-12T06:18:27.607Z,16.10
2018-06-12T06:20:55.164Z,9.97
2018-06-12T06:23:22.807Z,12.53
2018-06-12T06:25:50.388Z,17.00
2018-06-12T06:28:18.292Z,9.80
2018-06-12T06:30:46.142Z,13.43
2018-06-12T06:33:13.993Z,16.30
2018-06-12T06:35:41.753Z,20.40
2018-06-12T06:38:09.726Z,17.40
2018-06-12T06:40:37.501Z,24.43
2018-06-12T06:43:05.434Z,22.50
2018-06-12T06:45:33.252Z,13.87
2018-06-12T06:48:01.119Z,14.73
2018-06-12T06:50:28.961Z,15.63
2018-06-12T06:52:56.787Z,18.33
2018-06-12T06:55:24.607Z,19.90
2018-06-12T06:57:52.471Z,16.20
2018-06-12T07:00:20.283Z,17.77
2018-06-12T07:02:48.106Z,15.93
2018-06-12T07:05:15.957Z,13.63
2018-06-12T07:07:43.750Z,12.97
2018-06-12T07:10:11.612Z,14.73
2018-06-12T07:12:39.456Z,9.83
2018-06-12T07:15:07.233Z,18.17
2018-06-12T07:17:35.204Z,13.60
2018-06-12T07:20:02.796Z,12.13
2018-06-12T07:22:41.949Z,14.77
2018-06-12T07:25:10.014Z,12.23
2018-06-12T07:27:37.600Z,14.87
2018-06-12T07:30:05.272Z,18.63
2018-06-12T07:32:32.846Z,19.30
2018-06-12T07:35:00.459Z,10.03
2018-06-12T07:37:28.091Z,12.30
2018-06-12T07:39:55.641Z,20.40
2018-06-12T07:42:23.270Z,15.00
2018-06-12T07:44:50.816Z,18.43
2018-06-12T07:47:24.844Z,13.60
2018-06-12T07:49:52.449Z,18.20
2018-06-12T07:52:19.996Z,10.03
2018-06-12T07:54:47.591Z,18.80
2018-06-12T07:57:15.181Z,10.63
2018-06-12T07:59:42.746Z,25.17
2018-06-12T08:02:10.346Z,20.87
2018-06-12T08:04:37.983Z,12.83
2018-06-12T08:07:05.615Z,14.83
2018-06-12T08:09:33.135Z,15.93
2018-06-12T08:12:00.700Z,12.47
2018-06-12T08:14:28.270Z,11.57
2018-06-12T08:16:55.840Z,8.17
2018-06-12T08:19:23.419Z,10.97
2018-06-12T08:21:50.992Z,19.63
2018-06-12T08:24:18.561Z,15.33
2018-06-12T08:26:46.126Z,10.83
2018-06-12T08:29:13.723Z,15.73
2018-06-12T08:31:41.292Z,13.60
2018-06-12T08:34:08.877Z,17.93
2018-06-12T08:36:36.444Z,14.63
2018-06-12T08:39:06.023Z,11.53
2018-06-12T08:41:33.813Z,13.63
2018-06-12T08:44:01.410Z,16.70
2018-06-12T08:46:29.091Z,12.10
2018-06-12T08:48:56.650Z,15.00
2018-06-12T08:51:24.280Z,16.10
2018-06-12T08:53:51.909Z,19.80
2018-06-12T08:56:19.471Z,17.20
2018-06-12T08:58:47.045Z,10.20
2018-06-12T09:01:14.641Z,19.53
2018-06-12T09:03:42.265Z,10.10
2018-06-12T09:06:09.837Z,11.87
2018-06-12T09:08:37.411Z,12.23
2018-06-12T09:11:05.010Z,11.10
2018-06-12T09:13:32.592Z,15.10
2018-06-12T09:16:00.200Z,20.00
2018-06-12T09:18:27.782Z,10.87
2018-06-12T09:20:55.373Z,10.40
2018-06-12T09:23:23.872Z,16.50
2018-06-12T09:25:51.689Z,13.57
2018-06-12T09:28:19.309Z,16.57
2018-06-12T09:30:46.910Z,13.77
2018-06-12T09:33:14.544Z,14.90
2018-06-12T09:35:42.146Z,14.07
2018-06-12T09:38:09.751Z,12.60
2018-06-12T09:40:37.357Z,17.63
2018-06-12T09:43:04.964Z,15.20
2018-06-12T09:45:32.590Z,14.83
2018-06-12T09:48:00.173Z,17.80
2018-06-12T09:50:27.788Z,19.37
2018-06-12T09:52:55.405Z,21.10
2018-06-12T09:55:23.022Z,19.13
2018-06-12T09:57:50.665Z,17.23
2018-06-12T10:00:22.615Z,16.10
2018-06-12T10:02:50.208Z,19.87
2018-06-12T10:05:17.785Z,43.53
2018-06-12T10:07:45.339Z,17.13
2018-06-12T10:10:13.431Z,14.63
2018-06-12T10:12:40.976Z,19.40
2018-06-12T10:15:08.678Z,15.50
2018-06-12T10:17:36.248Z,14.40
2018-06-12T10:20:03.916Z,17.80
2018-06-12T10:22:31.513Z,23.60
2018-06-12T10:24:59.139Z,16.93
2018-06-12T10:27:26.729Z,17.73
2018-06-12T10:29:54.398Z,12.40
2018-06-12T10:32:22.254Z,15.00
2018-06-12T10:34:51.142Z,16.63
2018-06-12T10:37:19.068Z,11.93
2018-06-12T10:39:46.902Z,11.43
2018-06-12T10:42:14.481Z,15.70
2018-06-12T10:44:42.095Z,17.37
2018-06-12T10:47:09.700Z,27.70
2018-06-12T10:49:37.301Z,17.73
2018-06-12T10:52:04.897Z,23.57
2018-06-12T10:54:32.490Z,20.43
2018-06-12T10:57:00.087Z,13.17
2018-06-12T10:59:27.665Z,15.13
2018-06-12T11:01:55.313Z,21.20
2018-06-12T11:04:22.905Z,16.70
2018-06-12T11:06:50.512Z,16.37
2018-06-12T11:09:18.102Z,28.63
2018-06-12T11:11:45.686Z,18.63
2018-06-12T11:14:13.302Z,14.60
2018-06-12T11:16:40.904Z,15.93
2018-06-12T11:19:08.510Z,13.87
2018-06-12T11:21:36.182Z,22.03
2018-06-12T11:24:03.829Z,20.73
2018-06-12T11:26:31.438Z,18.93
2018-06-12T11:28:59.027Z,17.00
2018-06-12T11:31:26.625Z,12.07
2018-06-12T11:33:54.214Z,16.97
2018-06-12T11:36:21.811Z,13.00
2018-06-12T11:38:49.416Z,18.80
2018-06-12T11:41:17.012Z,22.67
2018-06-12T11:43:44.610Z,16.13
2018-06-12T11:46:12.212Z,19.30
2018-06-12T11:48:39.793Z,16.67
2018-06-12T11:51:07.399Z,15.63
2018-06-12T11:53:35.052Z,19.73
2018-06-12T11:56:02.672Z,14.40
2018-06-12T11:58:30.275Z,26.40
2018-06-12T12:00:57.886Z,16.20
2018-06-12T12:03:25.533Z,22.67
2018-06-12T12:05:53.122Z,34.87
2018-06-12T12:08:20.703Z,20.93
2018-06-12T12:10:48.298Z,14.63
2018-06-12T12:13:15.844Z,18.63
2018-06-12T12:15:43.438Z,13.80
2018-06-12T12:18:11.060Z,18.77
2018-06-12T12:20:38.633Z,12.70
2018-06-12T12:23:06.216Z,24.53
2018-06-12T12:25:33.796Z,24.77
2018-06-12T12:28:01.404Z,15.73
2018-06-12T12:30:29.106Z,20.93
2018-06-12T12:32:56.800Z,19.90
2018-06-12T12:35:24.426Z,18.10
2018-06-12T12:37:52.051Z,12.83
2018-06-12T12:40:19.648Z,18.40
2018-06-12T12:42:47.256Z,14.20
2018-06-12T12:45:14.855Z,15.43
2018-06-12T12:47:42.460Z,14.87
2018-06-12T12:50:10.064Z,13.67
2018-06-12T12:52:37.697Z,20.13
2018-06-12T12:55:05.288Z,20.23
2018-06-12T12:57:32.923Z,15.90
2018-06-12T13:00:00.525Z,18.43
2018-06-12T13:02:28.148Z,17.60
2018-06-12T13:04:55.734Z,16.30
2018-06-12T13:07:23.347Z,12.80
2018-06-12T13:09:50.952Z,16.40
2018-06-12T13:12:18.594Z,18.77
2018-06-12T13:14:46.159Z,24.07
2018-06-12T13:17:13.763Z,15.10
2018-06-12T13:19:41.372Z,18.33
2018-06-12T13:22:08.984Z,24.23
2018-06-12T13:24:36.549Z,21.30
2018-06-12T13:27:04.113Z,16.07
2018-06-12T13:29:31.697Z,16.60
2018-06-12T13:31:59.274Z,21.13
2018-06-12T13:34:26.847Z,15.20
2018-06-12T13:36:54.418Z,18.70
2018-06-12T13:39:21.997Z,17.00
2018-06-12T13:41:49.596Z,18.63
2018-06-12T13:44:17.179Z,21.17
2018-06-12T13:46:44.773Z,25.07
2018-06-12T13:49:12.340Z,15.60
2018-06-12T13:51:39.940Z,21.60
2018-06-12T13:54:07.509Z,18.17
2018-06-12T13:56:35.067Z,23.70
2018-06-12T13:59:02.621Z,22.53
2018-06-12T14:01:30.202Z,20.20
2018-06-12T14:03:57.795Z,17.07
2018-06-12T14:06:25.381Z,17.73
2018-06-12T14:08:52.993Z,18.43
2018-06-12T14:11:20.557Z,18.07
2018-06-12T14:13:48.110Z,18.30
2018-06-12T14:16:15.660Z,19.10
2018-06-12T14:18:43.223Z,20.23
2018-06-12T14:21:10.812Z,25.23
2018-06-12T14:23:38.416Z,18.13
2018-06-12T14:26:05.978Z,21.60
2018-06-12T14:28:33.541Z,19.53
2018-06-12T14:31:01.086Z,16.57
2018-06-12T14:33:28.656Z,21.23
2018-06-12T14:35:56.249Z,27.00
2018-06-12T14:38:23.842Z,22.83
2018-06-12T14:40:51.431Z,15.17
2018-06-12T14:43:18.998Z,13.13
2018-06-12T14:45:46.567Z,25.17
2018-06-12T14:48:14.174Z,20.50
2018-06-12T14:50:41.748Z,22.20
2018-06-12T14:53:09.299Z,17.70
2018-06-12T14:55:36.908Z,12.10
2018-06-12T14:58:04.461Z,24.33
2018-06-12T15:00:32.040Z,13.00
2018-06-12T15:02:59.641Z,18.37
2018-06-12T15:05:27.208Z,25.53
2018-06-12T15:07:54.816Z,18.10
2018-06-12T15:10:22.436Z,11.90
2018-06-12T15:12:50.070Z,12.13
2018-06-12T15:15:17.628Z,12.90
2018-06-12T15:17:45.240Z,11.53
2018-06-12T15:20:12.816Z,13.33
2018-06-12T15:22:40.489Z,11.03
2018-06-12T15:25:08.038Z,10.93
2018-06-12T15:27:35.582Z,10.93
2018-06-12T15:30:03.293Z,13.37
2018-06-12T15:32:31.071Z,15.20
2018-06-12T15:34:58.660Z,11.83
2018-06-12T15:37:26.249Z,15.10
2018-06-12T15:39:53.824Z,11.10
2018-06-12T15:42:21.369Z,13.07
2018-06-12T15:44:48.952Z,9.07
2018-06-12T15:47:16.592Z,9.83
2018-06-12T15:49:44.148Z,13.60
2018-06-12T15:52:11.733Z,9.33
2018-06-12T15:54:39.336Z,19.40
2018-06-12T15:57:06.886Z,13.60
2018-06-12T15:59:34.501Z,15.73
2018-06-12T16:02:02.048Z,11.37
2018-06-12T16:04:30.523Z,5.83
2018-06-12T16:06:58.126Z,8.57
2018-06-12T16:09:25.733Z,8.57
2018-06-12T16:11:53.319Z,5.20
2018-06-12T16:14:20.899Z,12.77
2018-06-12T16:16:48.453Z,6.03
2018-06-12T16:19:16.054Z,12.13
2018-06-12T16:21:43.687Z,10.27
2018-06-12T16:24:11.320Z,7.10
2018-06-12T16:26:38.889Z,6.50
2018-06-12T16:29:06.512Z,8.53
2018-06-12T16:31:34.091Z,10.20
2018-06-12T16:34:01.700Z,5.40
2018-06-12T16:36:29.279Z,8.37
2018-06-12T16:38:56.873Z,6.23
2018-06-12T16:41:24.483Z,6.70
2018-06-12T16:43:52.031Z,7.73
2018-06-12T16:46:19.620Z,8.40
2018-06-12T16:48:47.188Z,4.97
2018-06-12T16:51:14.744Z,4.00
2018-06-12T16:53:42.373Z,5.33
2018-06-12T16:56:09.983Z,6.43
2018-06-12T16:58:37.590Z,4.37
2018-06-12T17:01:05.233Z,6.07
2018-06-12T17:03:32.855Z,14.33
2018-06-12T17:06:00.496Z,7.27
2018-06-12T17:08:28.074Z,5.67
2018-06-12T17:10:55.659Z,5.77
2018-06-12T17:13:23.247Z,5.77
2018-06-12T17:15:50.832Z,4.20
2018-06-12T17:18:18.433Z,8.33
2018-06-12T17:20:46.028Z,4.83
2018-06-12T17:23:13.625Z,5.60
2018-06-12T17:25:41.240Z,5.50
2018-06-12T17:28:08.840Z,5.20
2018-06-12T17:30:36.453Z,5.30
2018-06-12T17:33:04.025Z,5.57
2018-06-12T17:35:31.602Z,5.57
2018-06-12T17:37:59.216Z,7.53
2018-06-12T17:40:26.800Z,9.27
2018-06-12T17:42:54.423Z,8.20
2018-06-12T17:45:22.020Z,5.70
2018-06-12T17:47:49.624Z,11.07
2018-06-12T17:50:17.211Z,7.13
2018-06-12T17:52:44.823Z,8.70
2018-06-12T17:55:12.414Z,3.23
2018-06-12T17:57:40.013Z,7.60
2018-06-12T18:00:07.659Z,6.40
2018-06-12T18:02:35.275Z,7.57
2018-06-12T18:05:02.909Z,7.13
2018-06-12T18:07:30.509Z,7.70
2018-06-12T18:09:58.125Z,5.87
2018-06-12T18:12:25.732Z,4.27
2018-06-12T18:14:53.323Z,7.83
2018-06-12T18:17:20.921Z,5.17
2018-06-12T18:19:53.814Z,10.70
2018-06-12T18:22:21.424Z,5.10
2018-06-12T18:24:49.161Z,5.60
2018-06-12T18:27:16.727Z,10.77
2018-06-12T18:29:44.320Z,4.73
2018-06-12T18:32:11.915Z,7.83
2018-06-12T18:34:39.497Z,4.83
2018-06-12T18:37:07.175Z,8.23
2018-06-12T18:39:34.815Z,6.33
2018-06-12T18:42:02.458Z,4.13
2018-06-12T18:44:30.032Z,7.00
2018-06-12T18:46:57.639Z,4.70
2018-06-12T18:49:25.309Z,10.10
2018-06-12T18:51:52.865Z,7.50
2018-06-12T18:54:20.459Z,12.50
2018-06-12T18:56:48.295Z,7.70
2018-06-12T18:59:15.879Z,7.67
2018-06-12T19:01:43.496Z,6.27
2018-06-12T19:04:11.101Z,6.50
2018-06-12T19:06:38.848Z,7.13
2018-06-12T19:09:06.774Z,5.60
2018-06-12T19:11:34.376Z,5.23
2018-06-12T19:14:01.949Z,7.43
2018-06-12T19:16:29.540Z,5.23
2018-06-12T19:18:57.108Z,10.60
2018-06-12T19:21:24.757Z,6.43
2018-06-12T19:23:52.357Z,5.53
2018-06-12T19:26:19.965Z,8.00
2018-06-12T19:28:47.571Z,6.00
2018-06-12T19:31:15.168Z,9.10
2018-06-12T19:33:42.796Z,6.97
2018-06-12T19:36:10.413Z,7.90
2018-06-12T19:38:38.032Z,8.80
2018-06-12T19:41:06.373Z,10.60
2018-06-12T19:43:33.993Z,4.70
2018-06-12T19:46:01.583Z,11.27
2018-06-12T19:48:29.194Z,12.40
2018-06-12T19:50:56.822Z,7.27
2018-06-12T19:53:24.433Z,8.77
2018-06-12T19:55:52.060Z,6.73
2018-06-12T19:58:19.691Z,6.70
2018-06-12T20:00:47.356Z,6.37
2018-06-12T20:03:15.254Z,5.10
2018-06-12T20:05:42.887Z,9.23
2018-06-12T20:08:11.969Z,6.77
2018-06-12T20:10:39.536Z,7.30
2018-06-12T20:13:07.295Z,5.07
2018-06-12T20:15:34.900Z,11.17
2018-06-12T20:18:02.625Z,12.67
2018-06-12T20:20:30.314Z,10.63
2018-06-12T20:22:57.899Z,6.53
2018-06-12T20:25:25.497Z,5.47
2018-06-12T20:27:53.092Z,5.37
2018-06-12T20:30:20.733Z,7.20
2018-06-12T20:32:48.376Z,10.00
2018-06-12T20:35:16.016Z,6.80
2018-06-12T20:37:43.603Z,8.20
2018-06-12T20:40:11.226Z,5.33
2018-06-12T20:42:38.842Z,9.27
2018-06-12T20:45:06.605Z,7.30
2018-06-12T20:47:34.215Z,5.53
2018-06-12T20:50:01.820Z,10.57
2018-06-12T20:52:29.397Z,9.30
2018-06-12T20:54:56.985Z,9.23
2018-06-12T20:57:24.554Z,6.80
2018-06-12T20:59:52.144Z,8.17
2018-06-12T21:02:19.714Z,8.33
2018-06-12T21:04:47.279Z,8.00
2018-06-12T21:07:15.000Z,4.83
2018-06-12T21:09:42.498Z,6.40
2018-06-12T21:12:10.134Z,5.33
2018-06-12T21:14:37.706Z,10.47
2018-06-12T21:17:05.305Z,7.07
2018-06-12T21:19:32.898Z,7.30
2018-06-12T21:22:00.506Z,7.53
2018-06-12T21:24:28.116Z,10.10
2018-06-12T21:26:55.690Z,4.87
2018-06-12T21:29:23.255Z,6.30
2018-06-12T21:31:50.853Z,8.47
2018-06-12T21:34:18.449Z,7.33
2018-06-12T21:36:46.017Z,9.03
2018-06-12T21:39:13.618Z,7.60
2018-06-12T21:41:41.197Z,8.23
2018-06-12T21:44:08.768Z,5.53
2018-06-12T21:46:36.363Z,5.53
2018-06-12T21:49:03.931Z,13.13
2018-06-12T21:51:31.541Z,5.93
2018-06-12T21:53:59.151Z,6.43
2018-06-12T21:56:26.773Z,8.20
2018-06-12T21:58:54.375Z,7.87
2018-06-12T22:01:21.945Z,4.70
2018-06-12T22:03:49.552Z,7.60
2018-06-12T22:06:17.167Z,6.20
2018-06-12T22:08:44.759Z,11.20
2018-06-12T22:11:12.361Z,7.03
2018-06-12T22:13:39.914Z,5.47
2018-06-12T22:16:07.484Z,7.13
2018-06-12T22:18:35.093Z,13.63
2018-06-12T22:21:02.652Z,6.10
2018-06-12T22:23:30.208Z,8.00
2018-06-12T22:25:57.775Z,12.70
2018-06-12T22:28:25.357Z,9.97
2018-06-12T22:30:52.932Z,8.97
2018-06-12T22:33:20.505Z,10.47
2018-06-12T22:35:48.142Z,13.07
2018-06-12T22:38:15.745Z,8.90
2018-06-12T22:40:43.312Z,7.70
2018-06-12T22:43:10.872Z,8.10
2018-06-12T22:45:38.519Z,8.73
2018-06-12T22:48:06.071Z,6.90
2018-06-12T22:50:33.683Z,8.37
2018-06-12T22:53:01.258Z,11.17
2018-06-12T22:55:28.844Z,9.10
2018-06-12T22:57:56.388Z,9.27
2018-06-12T23:00:23.939Z,8.60
2018-06-12T23:02:51.524Z,14.73
2018-06-12T23:05:19.110Z,8.23
2018-06-12T23:07:46.657Z,12.13
2018-06-12T23:10:14.250Z,7.80
2018-06-12T23:12:41.794Z,8.87
2018-06-12T23:15:09.381Z,8.33
2018-06-12T23:17:36.942Z,9.07
2018-06-12T23:20:09.980Z,8.90
2018-06-12T23:22:37.556Z,6.90
2018-06-12T23:25:05.102Z,6.97
2018-06-12T23:27:32.689Z,17.50
2018-06-12T23:30:00.225Z,10.57
2018-06-12T23:32:27.783Z,9.70
2018-06-12T23:34:55.327Z,5.43
2018-06-12T23:37:22.886Z,12.93
2018-06-12T23:39:50.467Z,7.60
2018-06-12T23:42:18.020Z,9.93
2018-06-12T23:44:45.599Z,8.63
2018-06-12T23:47:13.152Z,6.83
2018-06-12T23:49:40.729Z,8.50
2018-06-12T23:52:08.309Z,9.83
2018-06-12T23:54:35.881Z,9.43
2018-06-12T23:57:03.480Z,8.80
2018-06-12T23:59:31.038Z,5.50
